Time;durP1;ratioP1;P1;durP2;ratioP2;P2;SDS_P1;SDS_P2;PMS_P1;PMS_P2;Temp;Humidity;BMP_temperature;BMP_pressure;BME280_temperature;BME280_humidity;BME280_pressure;Samples;Min_cycle;Max_cycle;Signal;HPM_P1;HPM_P2
2023/08/22 00:03:08;;;;;;;7.90;7.13;;;17.10;99.90;;;;;;8323142;28;20186;-66
2023/08/22 00:07:09;;;;;;;7.43;6.83;;;17.00;99.90;;;;;;8310738;28;20583;-65
2023/08/22 00:11:10;;;;;;;8.60;7.80;;;17.00;99.90;;;;;;8317430;28;20202;-64
2023/08/22 00:15:12;;;;;;;8.87;8.00;;;17.00;99.90;;;;;;8306461;28;20190;-66
2023/08/22 00:19:13;;;;;;;9.00;8.10;;;17.00;99.90;;;;;;8326936;28;20214;-67
2023/08/22 00:23:14;;;;;;;8.77;7.97;;;17.00;99.90;;;;;;8329523;28;20197;-64
2023/08/22 00:27:15;;;;;;;8.80;7.63;;;16.90;99.90;;;;;;8312561;28;20232;-65
2023/08/22 00:31:15;;;;;;;9.23;7.90;;;16.80;99.90;;;;;;8300245;28;20212;-63
2023/08/22 00:35:16;;;;;;;8.13;7.43;;;16.80;99.90;;;;;;8302274;28;20519;-64
2023/08/22 00:39:19;;;;;;;7.90;7.10;;;16.70;99.90;;;;;;8306193;28;20221;-65
2023/08/22 00:43:19;;;;;;;8.00;7.20;;;16.70;99.90;;;;;;8326216;28;20193;-65
2023/08/22 00:47:21;;;;;;;7.83;7.03;;;16.70;99.90;;;;;;8306274;28;20237;-64
2023/08/22 00:51:22;;;;;;;7.90;7.20;;;16.60;99.90;;;;;;8327542;28;20193;-64
2023/08/22 00:55:23;;;;;;;8.70;7.90;;;16.60;99.90;;;;;;8320692;28;20215;-66
2023/08/22 00:59:25;;;;;;;10.27;8.43;;;16.60;99.90;;;;;;8324772;28;20242;-66
2023/08/22 01:03:26;;;;;;;10.10;8.40;;;16.60;99.90;;;;;;8319817;28;20209;-63
2023/08/22 01:07:34;;;;;;;9.33;8.33;;;16.60;99.90;;;;;;8304768;28;20213;-64
2023/08/22 01:11:49;;;;;;;9.73;8.83;;;16.60;99.90;;;;;;8313601;28;20210;-65
2023/08/22 01:15:50;;;;;;;9.93;8.93;;;16.60;99.90;;;;;;8323747;28;20218;-65
2023/08/22 01:19:51;;;;;;;11.30;8.60;;;16.60;99.90;;;;;;8320357;28;20209;-63
2023/08/22 01:23:52;;;;;;;8.83;7.93;;;16.50;99.90;;;;;;8323980;28;20269;-65
2023/08/22 01:28:11;;;;;;;9.77;8.77;;;16.50;99.90;;;;;;8314049;28;20254;-63
2023/08/22 01:32:27;;;;;;;10.17;8.80;;;16.50;99.90;;;;;;8324283;28;20191;-65
2023/08/22 01:36:29;;;;;;;9.13;8.33;;;16.50;99.90;;;;;;8315934;28;20190;-64
2023/08/22 01:40:31;;;;;;;9.30;8.40;;;16.50;99.90;;;;;;8310492;28;20179;-66
2023/08/22 01:44:33;;;;;;;9.97;9.07;;;16.50;99.90;;;;;;8305834;28;20189;-64
2023/08/22 01:48:34;;;;;;;9.23;8.33;;;16.50;99.90;;;;;;8302029;28;20186;-66
2023/08/22 01:52:35;;;;;;;11.17;8.03;;;16.40;99.90;;;;;;8320518;28;20209;-66
2023/08/22 01:56:35;;;;;;;8.13;7.43;;;16.40;99.90;;;;;;8322921;28;20261;-63
2023/08/22 02:00:39;;;;;;;9.00;8.20;;;16.30;99.90;;;;;;8310466;28;20282;-64
2023/08/22 02:04:39;;;;;;;8.80;8.00;;;16.30;99.90;;;;;;8310057;28;20183;-65
2023/08/22 02:08:40;;;;;;;9.67;7.57;;;16.30;99.90;;;;;;8301819;28;20307;-63
2023/08/22 02:12:41;;;;;;;9.03;7.87;;;16.30;99.90;;;;;;8319316;28;20201;-65
2023/08/22 02:16:41;;;;;;;9.37;8.50;;;16.20;99.90;;;;;;8327905;28;20733;-65
2023/08/22 02:20:42;;;;;;;9.57;8.63;;;16.20;99.90;;;;;;8312642;28;20196;-63
2023/08/22 02:24:43;;;;;;;10.30;8.70;;;16.20;99.90;;;;;;8297678;28;20305;-67
2023/08/22 02:28:44;;;;;;;9.40;8.33;;;16.10;99.90;;;;;;8325113;28;20185;-66
2023/08/22 02:32:45;;;;;;;9.63;8.63;;;16.10;99.90;;;;;;8308365;28;20190;-68
2023/08/22 02:36:45;;;;;;;8.10;7.30;;;16.10;99.90;;;;;;8301581;28;20212;-69
2023/08/22 02:40:46;;;;;;;7.53;6.80;;;16.20;99.90;;;;;;8314812;28;20189;-67
2023/08/22 02:44:47;;;;;;;8.17;7.37;;;16.20;99.90;;;;;;8309947;28;20277;-66
2023/08/22 02:48:47;;;;;;;9.90;8.67;;;16.10;99.90;;;;;;8302737;28;20237;-69
2023/08/22 02:52:49;;;;;;;9.27;7.73;;;16.10;99.90;;;;;;8301866;28;20263;-68
2023/08/22 02:56:50;;;;;;;7.93;7.10;;;16.10;99.90;;;;;;8309775;28;20208;-69
2023/08/22 03:00:52;;;;;;;7.83;7.13;;;16.00;99.90;;;;;;8301928;28;20179;-70
2023/08/22 03:04:53;;;;;;;8.40;7.33;;;15.90;99.90;;;;;;8319830;28;20194;-69
2023/08/22 03:08:54;;;;;;;8.57;7.77;;;15.90;99.90;;;;;;8314679;28;20198;-67
2023/08/22 03:12:54;;;;;;;8.67;7.80;;;15.80;99.90;;;;;;8302295;28;20194;-67
2023/08/22 03:16:55;;;;;;;10.30;8.80;;;15.80;99.90;;;;;;8302116;28;20206;-68
2023/08/22 03:20:56;;;;;;;10.33;9.23;;;15.70;99.90;;;;;;8331212;28;20182;-67
2023/08/22 03:24:57;;;;;;;9.50;8.50;;;15.70;99.90;;;;;;8328146;28;20312;-68
2023/08/22 03:28:57;;;;;;;17.07;6.70;;;15.70;99.90;;;;;;8323686;28;20196;-66
2023/08/22 03:32:58;;;;;;;9.23;8.33;;;15.70;99.90;;;;;;8315898;28;20296;-67
2023/08/22 03:36:59;;;;;;;9.13;7.90;;;15.60;99.90;;;;;;8307220;28;20205;-66
2023/08/22 03:41:00;;;;;;;8.77;7.40;;;15.60;99.90;;;;;;8312345;28;20182;-67
2023/08/22 03:45:01;;;;;;;7.77;7.07;;;15.50;99.90;;;;;;8326044;28;20179;-67
2023/08/22 03:49:04;;;;;;;8.73;7.93;;;15.50;99.90;;;;;;8324676;28;20194;-66
2023/08/22 03:53:06;;;;;;;9.83;8.80;;;15.50;99.90;;;;;;8317414;28;20280;-64
2023/08/22 03:57:07;;;;;;;10.17;8.70;;;15.50;99.90;;;;;;8324372;28;20237;-67
2023/08/22 04:01:08;;;;;;;9.30;8.40;;;15.40;99.90;;;;;;8308655;28;20183;-69
2023/08/22 04:05:08;;;;;;;11.53;10.07;;;15.40;99.90;;;;;;8326202;28;20182;-69
2023/08/22 04:09:09;;;;;;;11.47;10.37;;;15.40;99.90;;;;;;8313028;28;20216;-68
2023/08/22 04:13:10;;;;;;;10.43;9.43;;;15.50;99.90;;;;;;8308457;28;20190;-69
2023/08/22 04:17:11;;;;;;;12.93;10.17;;;15.50;99.90;;;;;;8314335;28;20221;-68
2023/08/22 04:21:12;;;;;;;10.60;8.97;;;15.50;99.90;;;;;;8329533;28;20190;-68
2023/08/22 04:25:13;;;;;;;11.27;8.03;;;15.70;99.90;;;;;;8301570;28;20201;-69
2023/08/22 04:29:14;;;;;;;7.90;7.10;;;15.90;99.90;;;;;;8309190;28;20243;-71
2023/08/22 04:33:14;;;;;;;9.43;8.43;;;16.30;99.90;;;;;;8315478;28;20208;-68
2023/08/22 04:37:15;;;;;;;11.97;10.03;;;16.40;99.90;;;;;;8310743;28;20224;-71
2023/08/22 04:41:16;;;;;;;12.83;11.53;;;16.70;99.90;;;;;;8330729;28;20193;-70
2023/08/22 04:45:17;;;;;;;17.13;15.00;;;17.00;99.90;;;;;;8314621;28;20192;-70
2023/08/22 04:49:18;;;;;;;19.20;14.37;;;17.10;99.90;;;;;;8307189;28;20235;-69
2023/08/22 04:53:19;;;;;;;16.10;12.23;;;17.30;99.90;;;;;;8308755;28;20198;-69
2023/08/22 04:57:21;;;;;;;14.37;12.10;;;17.50;99.90;;;;;;8325727;28;20205;-68
2023/08/22 05:01:22;;;;;;;15.27;11.27;;;17.70;99.90;;;;;;8300870;28;20234;-67
2023/08/22 05:05:22;;;;;;;11.13;10.03;;;18.10;99.90;;;;;;8324204;28;20182;-67
2023/08/22 05:09:26;;;;;;;9.47;8.67;;;18.30;99.90;;;;;;8314613;28;20206;-65
2023/08/22 05:13:27;;;;;;;9.43;8.37;;;18.60;99.90;;;;;;8307975;28;20186;-65
2023/08/22 05:17:27;;;;;;;9.17;8.33;;;18.90;99.90;;;;;;8324159;28;20232;-65
2023/08/22 05:21:28;;;;;;;8.33;7.53;;;19.10;99.90;;;;;;8304091;28;20219;-72
2023/08/22 05:25:29;;;;;;;8.57;7.70;;;19.40;99.90;;;;;;8320885;28;20181;-64
2023/08/22 05:29:30;;;;;;;8.60;7.70;;;19.70;99.90;;;;;;8324504;28;20182;-65
2023/08/22 05:33:31;;;;;;;7.97;7.00;;;19.90;99.90;;;;;;8297430;28;20188;-68
2023/08/22 05:37:32;;;;;;;7.57;6.10;;;20.20;99.90;;;;;;8302907;28;20213;-64
2023/08/22 05:41:32;;;;;;;7.17;6.20;;;20.50;99.90;;;;;;8298109;28;20305;-68
2023/08/22 05:45:33;;;;;;;9.07;5.57;;;20.80;1.00;;;;;;8310371;28;20239;-65
2023/08/22 05:49:37;;;;;;;8.80;6.10;;;21.10;1.00;;;;;;8314632;28;20336;-65
2023/08/22 05:53:38;;;;;;;8.73;6.90;;;21.20;1.00;;;;;;8301002;28;20193;-65
2023/08/22 05:57:38;;;;;;;11.87;7.00;;;21.30;99.90;;;;;;8295156;28;20209;-64
2023/08/22 06:01:39;;;;;;;11.03;7.63;;;21.50;99.90;;;;;;8326934;28;20201;-63
2023/08/22 06:05:40;;;;;;;8.73;6.93;;;21.60;99.90;;;;;;8324267;28;20245;-67
2023/08/22 06:09:44;;;;;;;7.70;5.70;;;21.70;99.90;;;;;;8325984;28;20220;-64
2023/08/22 06:13:45;;;;;;;6.87;6.23;;;21.70;99.90;;;;;;8307874;28;20325;-66
2023/08/22 06:17:46;;;;;;;7.30;6.60;;;21.70;99.90;;;;;;8337673;28;20220;-67
2023/08/22 06:21:46;;;;;;;8.30;6.67;;;21.70;99.90;;;;;;8295782;28;20287;-68
2023/08/22 06:25:48;;;;;;;7.00;6.30;;;21.80;99.90;;;;;;8308872;28;20195;-64
2023/08/22 06:29:48;;;;;;;9.90;7.17;;;22.00;99.90;;;;;;8324883;28;20496;-63
2023/08/22 06:33:51;;;;;;;7.17;6.37;;;22.10;99.90;;;;;;8320467;28;20365;-67
2023/08/22 06:37:52;;;;;;;7.73;6.50;;;22.20;99.90;;;;;;8322801;28;20218;-66
2023/08/22 06:41:52;;;;;;;9.50;6.87;;;22.30;99.90;;;;;;8318332;28;20191;-64
2023/08/22 06:45:56;;;;;;;7.60;6.77;;;22.40;99.90;;;;;;8315308;28;20198;-63
2023/08/22 06:49:57;;;;;;;8.77;6.87;;;22.50;99.90;;;;;;8319313;28;20218;-67
2023/08/22 06:53:58;;;;;;;7.27;6.33;;;22.60;99.90;;;;;;8312334;28;20223;-69
2023/08/22 06:57:59;;;;;;;10.60;6.70;;;22.70;99.90;;;;;;8313379;28;20218;-65
2023/08/22 07:01:59;;;;;;;7.97;6.20;;;22.90;99.90;;;;;;8310192;28;20186;-64
2023/08/22 07:06:00;;;;;;;8.77;6.17;;;23.00;99.50;;;;;;8314055;28;20269;-64
2023/08/22 07:10:01;;;;;;;11.90;6.93;;;23.20;94.80;;;;;;8308185;28;21488;-63
2023/08/22 07:14:03;;;;;;;9.03;6.20;;;23.30;70.20;;;;;;8314957;28;20298;-65
2023/08/22 07:18:04;;;;;;;6.73;5.40;;;23.40;57.70;;;;;;8288213;28;20222;-67
2023/08/22 07:22:04;;;;;;;7.93;5.33;;;23.60;77.70;;;;;;8308673;28;20203;-64
2023/08/22 07:26:11;;;;;;;8.23;5.50;;;23.80;78.90;;;;;;8297932;28;20284;-64
2023/08/22 07:30:12;;;;;;;8.93;6.40;;;23.90;42.00;;;;;;8319064;28;20271;-63
2023/08/22 07:34:13;;;;;;;7.10;5.87;;;24.10;24.60;;;;;;8299171;28;20221;-68
2023/08/22 07:38:17;;;;;;;7.70;5.97;;;24.30;9.00;;;;;;8294636;28;20233;-66
2023/08/22 07:42:17;;;;;;;7.90;6.03;;;24.40;1.00;;;;;;8290741;28;20182;-63
2023/08/22 07:46:19;;;;;;;7.30;5.63;;;24.60;1.00;;;;;;8307141;28;20190;-67
2023/08/22 07:50:20;;;;;;;6.87;5.63;;;24.70;1.00;;;;;;8295044;28;20186;-63
2023/08/22 07:54:21;;;;;;;6.33;5.43;;;24.80;1.00;;;;;;8310972;28;20196;-68
2023/08/22 07:58:21;;;;;;;7.80;4.85;;;25.10;1.00;;;;;;8286777;28;20221;-68
2023/08/22 08:02:22;;;;;;;9.27;5.05;;;25.30;1.00;;;;;;8309609;28;20209;-64
2023/08/22 08:06:23;;;;;;;9.25;5.15;;;25.50;1.00;;;;;;8303217;28;20231;-64
2023/08/22 08:10:24;;;;;;;6.53;5.30;;;25.60;1.00;;;;;;8309116;28;20227;-68
2023/08/22 08:14:25;;;;;;;9.20;5.15;;;25.80;1.00;;;;;;8303463;28;20194;-66
2023/08/22 08:18:25;;;;;;;6.10;5.25;;;25.90;1.00;;;;;;8297563;28;20213;-67
2023/08/22 08:22:26;;;;;;;6.90;5.75;;;26.10;1.00;;;;;;8319623;28;20190;-67
2023/08/22 08:26:27;;;;;;;6.13;5.22;;;26.20;1.00;;;;;;8306439;28;20824;-66
2023/08/22 08:30:27;;;;;;;5.65;5.15;;;26.30;1.00;;;;;;8310290;28;20361;-65
2023/08/22 08:34:28;;;;;;;7.32;5.47;;;26.40;1.00;;;;;;8325890;28;20192;-63
2023/08/22 08:38:29;;;;;;;5.70;5.15;;;26.40;1.00;;;;;;8315025;28;20207;-64
2023/08/22 08:42:30;;;;;;;6.25;5.07;;;26.50;1.00;;;;;;8303482;28;20189;-67
2023/08/22 08:46:31;;;;;;;6.82;5.85;;;26.60;1.00;;;;;;8314459;28;20186;-64
2023/08/22 08:50:33;;;;;;;7.93;5.47;;;26.80;1.00;;;;;;8322617;28;20183;-68
2023/08/22 08:54:35;;;;;;;7.65;5.68;;;26.90;1.00;;;;;;8301055;28;20194;-65
2023/08/22 08:58:38;;;;;;;5.95;5.22;;;27.00;1.00;;;;;;8307833;28;20217;-65
2023/08/22 09:02:38;;;;;;;5.20;4.70;;;27.20;1.00;;;;;;8300485;28;20471;-67
2023/08/22 09:06:39;;;;;;;6.25;5.35;;;27.50;1.00;;;;;;8298519;28;20189;-66
2023/08/22 09:10:40;;;;;;;5.68;4.93;;;28.20;1.00;;;;;;8321907;28;20260;-63
2023/08/22 09:14:46;;;;;;;6.47;5.43;;;28.60;1.00;;;;;;8319868;28;20194;-66
2023/08/22 09:18:47;;;;;;;7.18;6.00;;;28.90;1.00;;;;;;8316516;28;20871;-64
2023/08/22 09:22:48;;;;;;;6.95;4.90;;;28.80;1.00;;;;;;8318289;28;20572;-63
2023/08/22 09:26:49;;;;;;;9.68;6.88;;;28.50;1.00;;;;;;8322510;28;20200;-68
2023/08/22 09:30:50;;;;;;;7.15;5.32;;;28.40;1.00;;;;;;8330882;28;20194;-64
2023/08/22 09:34:53;;;;;;;6.07;5.35;;;28.20;1.00;;;;;;8310235;28;20186;-65
2023/08/22 09:38:55;;;;;;;5.05;4.53;;;28.30;1.00;;;;;;8317938;28;20358;-66
2023/08/22 09:42:56;;;;;;;7.60;5.55;;;28.40;1.00;;;;;;8297699;28;20314;-64
2023/08/22 09:46:57;;;;;;;6.00;4.65;;;28.50;1.00;;;;;;8298463;28;20277;-67
2023/08/22 09:51:02;;;;;;;5.35;4.60;;;28.50;1.00;;;;;;8297380;28;20533;-63
2023/08/22 09:55:03;;;;;;;5.82;4.60;;;28.70;1.00;;;;;;8301634;28;20183;-69
2023/08/22 09:59:08;;;;;;;5.95;4.88;;;28.90;1.00;;;;;;8321706;28;20251;-66
2023/08/22 10:03:11;;;;;;;5.43;4.85;;;29.00;1.00;;;;;;8303337;28;20186;-67
2023/08/22 10:07:12;;;;;;;6.68;5.10;;;29.00;1.00;;;;;;8313918;28;20193;-65
2023/08/22 10:11:16;;;;;;;6.85;5.68;;;29.10;1.00;;;;;;8316328;28;20197;-67
2023/08/22 10:15:17;;;;;;;5.65;4.95;;;29.00;1.00;;;;;;8316187;28;20182;-69
2023/08/22 10:19:20;;;;;;;9.27;4.90;;;28.80;1.00;;;;;;8297624;28;20301;-68
2023/08/22 10:23:52;;;;;;;6.80;5.00;;;28.90;1.00;;;;;;8294455;28;21043;-67
2023/08/22 10:27:53;;;;;;;6.43;4.82;;;29.10;1.00;;;;;;8316789;28;20218;-65
2023/08/22 10:32:03;;;;;;;5.38;4.57;;;29.00;1.00;;;;;;8302461;28;20185;-69
2023/08/22 10:36:24;;;;;;;7.47;4.80;;;29.10;1.00;;;;;;8307769;28;20181;-71
2023/08/22 10:40:28;;;;;;;7.63;4.72;;;29.30;1.00;;;;;;8303476;28;20209;-69
2023/08/22 10:44:30;;;;;;;6.25;4.22;;;29.50;1.00;;;;;;8328603;28;20201;-66
2023/08/22 10:48:30;;;;;;;6.20;5.10;;;29.60;1.00;;;;;;8326655;28;20532;-65
2023/08/22 10:52:35;;;;;;;4.68;4.28;;;29.60;1.00;;;;;;8325480;28;20205;-65
2023/08/22 10:56:36;;;;;;;5.95;4.80;;;29.50;1.00;;;;;;8316499;28;20269;-68
2023/08/22 11:00:36;;;;;;;11.38;4.72;;;29.60;1.00;;;;;;8308222;28;20514;-66
2023/08/22 11:04:38;;;;;;;6.80;4.20;;;29.70;1.00;;;;;;8319156;28;20217;-71
2023/08/22 11:08:41;;;;;;;6.00;4.68;;;29.70;1.00;;;;;;8307009;28;20279;-65
2023/08/22 11:12:45;;;;;;;4.88;4.47;;;29.90;1.00;;;;;;8316188;28;20194;-67
2023/08/22 11:16:46;;;;;;;6.97;4.78;;;30.00;1.00;;;;;;8325059;28;20273;-67
2023/08/22 11:20:55;;;;;;;6.13;5.10;;;30.00;1.00;;;;;;8305608;28;20190;-66
2023/08/22 11:24:56;;;;;;;4.53;4.13;;;30.20;1.00;;;;;;8306533;28;20202;-67
2023/08/22 11:29:04;;;;;;;5.28;4.75;;;30.30;1.00;;;;;;8327940;28;20224;-68
2023/08/22 11:33:05;;;;;;;7.43;4.75;;;30.30;1.00;;;;;;8321819;28;20186;-66
2023/08/22 11:37:06;;;;;;;6.43;4.95;;;30.30;1.00;;;;;;8309180;28;20209;-65
2023/08/22 11:41:08;;;;;;;5.85;4.35;;;30.40;1.00;;;;;;8327201;28;20186;-71
2023/08/22 11:45:10;;;;;;;6.38;4.88;;;30.50;1.00;;;;;;8308412;28;20209;-69
2023/08/22 11:49:11;;;;;;;5.32;4.75;;;30.70;1.00;;;;;;8312158;28;20193;-69
2023/08/22 11:53:15;;;;;;;5.13;4.68;;;30.80;1.00;;;;;;8319417;28;20249;-64
2023/08/22 11:57:16;;;;;;;6.35;4.72;;;30.90;1.00;;;;;;8305189;28;20272;-68
2023/08/22 12:01:19;;;;;;;5.50;5.00;;;30.90;1.00;;;;;;8312271;28;20186;-71
2023/08/22 12:05:36;;;;;;;6.15;4.30;;;31.10;1.00;;;;;;8327694;28;20215;-66
2023/08/22 12:09:37;;;;;;;5.43;4.93;;;31.40;1.00;;;;;;8315760;28;20218;-70
2023/08/22 12:13:38;;;;;;;7.10;4.75;;;31.60;1.00;;;;;;8322582;28;20205;-70
2023/08/22 12:17:38;;;;;;;4.85;4.40;;;31.50;1.00;;;;;;8326966;28;20213;-66
2023/08/22 12:21:39;;;;;;;8.25;4.57;;;31.80;1.00;;;;;;8309621;28;20265;-67
2023/08/22 12:25:42;;;;;;;5.07;4.57;;;32.00;1.00;;;;;;8310463;28;20177;-68
2023/08/22 12:29:45;;;;;;;4.75;4.25;;;32.40;1.00;;;;;;8327434;28;21002;-69
2023/08/22 12:33:45;;;;;;;5.65;4.22;;;32.60;1.00;;;;;;8312895;28;20191;-70
2023/08/22 12:37:46;;;;;;;5.03;4.53;;;32.90;1.00;;;;;;8309447;28;20276;-71
2023/08/22 12:41:47;;;;;;;5.50;4.40;;;33.20;1.00;;;;;;8306051;28;20193;-70
2023/08/22 12:45:47;;;;;;;5.43;4.78;;;33.20;1.00;;;;;;8309665;28;20186;-67
2023/08/22 12:49:48;;;;;;;5.57;4.68;;;33.10;1.00;;;;;;8329954;28;20182;-68
2023/08/22 12:53:49;;;;;;;5.40;3.92;;;32.80;1.00;;;;;;8306590;28;20209;-68
2023/08/22 12:57:50;;;;;;;6.63;4.40;;;32.80;1.00;;;;;;8318495;28;20217;-67
2023/08/22 13:01:51;;;;;;;5.20;4.70;;;32.70;1.00;;;;;;8322997;28;20265;-70
2023/08/22 13:05:52;;;;;;;4.72;4.32;;;32.50;1.00;;;;;;8294238;28;20182;-70
2023/08/22 13:09:52;;;;;;;5.10;4.35;;;32.60;1.00;;;;;;8320255;28;20621;-66
2023/08/22 13:13:53;;;;;;;4.57;4.18;;;32.70;1.00;;;;;;8325322;28;20190;-64
2023/08/22 13:17:54;;;;;;;5.22;4.47;;;32.80;1.00;;;;;;8307058;28;20339;-65
2023/08/22 13:21:55;;;;;;;7.13;4.25;;;32.80;1.00;;;;;;8308906;28;20264;-68
2023/08/22 13:25:55;;;;;;;5.05;4.55;;;32.70;1.00;;;;;;8312282;28;20197;-66
2023/08/22 13:29:56;;;;;;;4.63;4.07;;;32.50;1.00;;;;;;8323876;28;20197;-69
2023/08/22 13:33:57;;;;;;;5.50;4.30;;;32.80;1.00;;;;;;8307209;28;20198;-67
2023/08/22 13:37:58;;;;;;;5.78;4.28;;;33.10;1.00;;;;;;8307090;28;20300;-67
2023/08/22 13:41:58;;;;;;;5.70;4.90;;;33.30;1.00;;;;;;8324216;28;20208;-66
2023/08/22 13:46:02;;;;;;;6.05;5.00;;;33.30;1.00;;;;;;8326787;28;20193;-69
2023/08/22 13:50:03;;;;;;;5.88;4.78;;;33.20;1.00;;;;;;8306848;28;20205;-65
2023/08/22 13:54:03;;;;;;;4.90;4.43;;;33.30;1.00;;;;;;8320656;28;20430;-68
2023/08/22 13:58:04;;;;;;;5.05;4.50;;;33.60;1.00;;;;;;8322087;28;20209;-67
2023/08/22 14:02:06;;;;;;;9.40;5.78;;;33.60;1.00;;;;;;8320367;28;20239;-68
2023/08/22 14:06:06;;;;;;;5.68;4.60;;;33.50;1.00;;;;;;8304572;28;20185;-66
2023/08/22 14:10:09;;;;;;;5.90;4.82;;;33.50;1.00;;;;;;8319695;28;20288;-65
2023/08/22 14:14:10;;;;;;;5.10;4.60;;;33.60;1.00;;;;;;8312450;28;20187;-64
2023/08/22 14:18:12;;;;;;;5.82;4.57;;;33.70;1.00;;;;;;8322015;28;20263;-66
2023/08/22 14:22:12;;;;;;;5.32;4.80;;;33.60;1.00;;;;;;8308474;28;20320;-66
2023/08/22 14:26:13;;;;;;;4.93;4.40;;;33.30;1.00;;;;;;8308309;28;20213;-68
2023/08/22 14:30:14;;;;;;;6.05;4.63;;;33.40;1.00;;;;;;8302150;28;20240;-68
2023/08/22 14:34:15;;;;;;;4.72;4.30;;;33.30;1.00;;;;;;8296686;28;20192;-68
2023/08/22 14:38:16;;;;;;;6.25;5.05;;;33.40;1.00;;;;;;8298752;28;20206;-67
2023/08/22 14:42:17;;;;;;;7.35;4.47;;;32.30;1.00;;;;;;8289837;28;20182;-67
2023/08/22 14:46:17;;;;;;;5.57;5.05;;;31.70;1.00;;;;;;8313353;28;20189;-66
2023/08/22 14:50:18;;;;;;;5.45;4.95;;;31.20;1.00;;;;;;8317259;28;20194;-67
2023/08/22 14:54:19;;;;;;;8.65;5.10;;;31.50;1.00;;;;;;8300720;28;20252;-66
2023/08/22 14:58:19;;;;;;;10.00;5.35;;;31.70;1.00;;;;;;8291992;28;20277;-67
2023/08/22 15:02:20;;;;;;;8.85;6.90;;;31.90;1.00;;;;;;8313976;28;21327;-66
2023/08/22 15:06:21;;;;;;;5.80;5.20;;;31.90;1.00;;;;;;8313055;28;20273;-67
2023/08/22 15:10:22;;;;;;;5.72;5.13;;;31.10;1.00;;;;;;8292335;28;20206;-65
2023/08/22 15:14:22;;;;;;;5.80;5.30;;;30.70;1.00;;;;;;8311667;28;20228;-66
2023/08/22 15:18:24;;;;;;;6.75;6.03;;;30.60;1.00;;;;;;8314396;28;20211;-66
2023/08/22 15:22:25;;;;;;;5.82;5.32;;;30.40;1.00;;;;;;8310736;28;20190;-71
2023/08/22 15:26:26;;;;;;;6.65;4.88;;;30.40;1.00;;;;;;8323685;28;20187;-71
2023/08/22 15:30:27;;;;;;;5.97;4.90;;;30.40;1.00;;;;;;8315376;28;20186;-68
2023/08/22 15:34:27;;;;;;;7.03;5.53;;;30.50;1.00;;;;;;8314062;28;20336;-69
2023/08/22 15:38:33;;;;;;;5.60;5.10;;;30.90;1.00;;;;;;8308889;28;20281;-70
2023/08/22 15:42:34;;;;;;;6.28;5.00;;;31.30;1.00;;;;;;8287684;28;20368;-70
2023/08/22 15:46:34;;;;;;;6.20;4.70;;;31.10;1.00;;;;;;8304402;28;20186;-70
2023/08/22 15:50:35;;;;;;;5.45;4.95;;;30.60;1.00;;;;;;8311690;28;20194;-68
2023/08/22 15:54:36;;;;;;;8.23;5.55;;;30.10;1.00;;;;;;8319062;28;20190;-67
2023/08/22 15:58:37;;;;;;;6.22;4.97;;;29.70;1.00;;;;;;8310478;28;20220;-70
2023/08/22 16:02:38;;;;;;;5.65;5.10;;;29.60;1.00;;;;;;8291731;28;20190;-70
2023/08/22 16:06:39;;;;;;;6.45;4.30;;;29.50;1.00;;;;;;8307768;28;20186;-67
2023/08/22 16:10:39;;;;;;;5.70;4.55;;;29.30;1.00;;;;;;8315154;28;20213;-66
2023/08/22 16:14:40;;;;;;;5.10;4.60;;;29.20;1.00;;;;;;8305155;28;20193;-66
2023/08/22 16:18:41;;;;;;;6.47;4.72;;;29.00;1.00;;;;;;8312797;28;20216;-70
2023/08/22 16:22:42;;;;;;;4.50;4.10;;;28.80;1.00;;;;;;8318966;28;20197;-73
2023/08/22 16:26:42;;;;;;;4.38;3.97;;;28.50;1.00;;;;;;8317689;28;20189;-67
2023/08/22 16:30:48;;;;;;;7.40;4.95;;;28.10;1.00;;;;;;8321543;28;20186;-66
2023/08/22 16:34:49;;;;;;;6.53;4.55;;;27.90;1.00;;;;;;8312942;28;20247;-66
2023/08/22 16:38:50;;;;;;;5.10;4.60;;;27.80;1.00;;;;;;8314393;28;20221;-65
2023/08/22 16:42:51;;;;;;;5.10;4.32;;;27.70;1.00;;;;;;8303659;28;20190;-66
2023/08/22 16:46:52;;;;;;;7.55;4.80;;;27.60;1.00;;;;;;8312490;28;20207;-66
2023/08/22 16:50:54;;;;;;;7.43;5.13;;;27.50;1.00;;;;;;8314559;28;20182;-64
2023/08/22 16:54:54;;;;;;;8.13;5.15;;;27.30;1.00;;;;;;8329558;28;21653;-65
2023/08/22 16:58:56;;;;;;;7.57;5.57;;;27.10;1.00;;;;;;8312800;28;20280;-66
2023/08/22 17:02:58;;;;;;;6.05;4.32;;;26.80;1.00;;;;;;8311557;28;20185;-67
2023/08/22 17:06:59;;;;;;;6.70;5.00;;;26.70;1.00;;;;;;8308270;28;20186;-66
2023/08/22 17:11:07;;;;;;;5.50;4.78;;;26.50;1.00;;;;;;8325170;28;20657;-65
2023/08/22 17:15:09;;;;;;;7.32;4.38;;;26.30;1.00;;;;;;8303112;28;20185;-65
2023/08/22 17:19:12;;;;;;;8.90;4.72;;;26.00;1.00;;;;;;8319086;28;20261;-63
2023/08/22 17:23:13;;;;;;;8.27;4.50;;;25.90;1.00;;;;;;8286243;28;20198;-63
2023/08/22 17:27:14;;;;;;;6.63;3.47;;;25.70;1.00;;;;;;8302512;28;20279;-65
2023/08/22 17:31:15;;;;;;;5.78;4.28;;;25.50;1.00;;;;;;8298898;28;20255;-66
2023/08/22 17:35:15;;;;;;;5.80;4.07;;;25.40;1.00;;;;;;8304771;28;20197;-65
2023/08/22 17:39:18;;;;;;;8.47;4.50;;;25.00;1.00;;;;;;8302782;28;20314;-66
2023/08/22 17:43:18;;;;;;;9.10;3.80;;;24.70;1.00;;;;;;8300862;28;20189;-69
2023/08/22 17:47:19;;;;;;;7.30;3.57;;;24.60;1.00;;;;;;8327911;28;20187;-65
2023/08/22 17:51:20;;;;;;;6.80;4.30;;;24.40;1.00;;;;;;8317756;28;21456;-68
2023/08/22 17:55:20;;;;;;;5.33;3.60;;;24.10;1.00;;;;;;8305266;28;20182;-66
2023/08/22 17:59:21;;;;;;;6.23;4.20;;;23.80;1.00;;;;;;8307043;28;20207;-65
2023/08/22 18:03:22;;;;;;;5.30;3.63;;;23.70;14.50;;;;;;8303275;28;20327;-65
2023/08/22 18:07:22;;;;;;;5.57;3.70;;;23.60;22.80;;;;;;8305690;28;20193;-64
2023/08/22 18:11:23;;;;;;;4.67;3.33;;;23.50;31.70;;;;;;8315954;28;20209;-65
2023/08/22 18:15:24;;;;;;;5.43;3.60;;;23.40;23.50;;;;;;8320522;28;20208;-63
2023/08/22 18:19:25;;;;;;;8.47;3.50;;;23.40;29.40;;;;;;8316619;28;20242;-68
2023/08/22 18:23:26;;;;;;;5.17;2.83;;;23.40;13.80;;;;;;8322244;28;20190;-63
2023/08/22 18:27:27;;;;;;;5.83;3.47;;;23.30;20.60;;;;;;8323532;28;20224;-64
2023/08/22 18:31:28;;;;;;;4.70;3.43;;;23.20;28.00;;;;;;8314411;28;20190;-64
2023/08/22 18:35:29;;;;;;;7.40;4.13;;;23.20;27.50;;;;;;8309987;28;20185;-66
2023/08/22 18:39:29;;;;;;;8.10;3.57;;;23.10;36.40;;;;;;8310523;28;20206;-64
2023/08/22 18:43:30;;;;;;;5.83;2.97;;;23.10;23.80;;;;;;8325323;28;20182;-64
2023/08/22 18:47:31;;;;;;;4.80;2.90;;;23.00;17.00;;;;;;8321650;28;20190;-63
2023/08/22 18:51:31;;;;;;;4.87;3.13;;;22.90;10.70;;;;;;8307673;28;20193;-63
2023/08/22 18:55:33;;;;;;;7.13;4.47;;;22.80;4.20;;;;;;8297665;28;20264;-62
2023/08/22 18:59:34;;;;;;;11.60;7.30;;;22.70;11.20;;;;;;8316488;28;20212;-62
2023/08/22 19:03:35;;;;;;;7.97;4.80;;;22.60;25.60;;;;;;8303977;28;20197;-65
2023/08/22 19:07:36;;;;;;;5.67;3.97;;;22.50;45.90;;;;;;8321508;28;20190;-66
2023/08/22 19:11:37;;;;;;;5.37;3.30;;;22.50;66.70;;;;;;8313958;28;20225;-65
2023/08/22 19:15:38;;;;;;;5.67;3.43;;;22.40;63.80;;;;;;8311444;28;20195;-64
2023/08/22 19:19:39;;;;;;;6.60;3.80;;;22.30;72.40;;;;;;8310989;28;20210;-65
2023/08/22 19:23:40;;;;;;;5.80;3.57;;;22.20;92.70;;;;;;8310503;28;20194;-65
2023/08/22 19:27:41;;;;;;;5.13;3.07;;;22.20;99.90;;;;;;8310982;28;20452;-64
2023/08/22 19:31:41;;;;;;;5.47;3.40;;;22.10;99.90;;;;;;8309981;28;20194;-64
2023/08/22 19:35:42;;;;;;;4.47;3.30;;;22.00;95.90;;;;;;8295136;28;20538;-64
2023/08/22 19:39:47;;;;;;;9.07;3.10;;;21.90;99.90;;;;;;8312016;28;20224;-64
2023/08/22 19:43:47;;;;;;;6.53;3.30;;;21.80;99.90;;;;;;8312239;28;20186;-64
2023/08/22 19:47:48;;;;;;;7.97;3.17;;;21.80;99.90;;;;;;8291813;28;20232;-64
2023/08/22 19:51:49;;;;;;;3.70;2.80;;;21.80;99.90;;;;;;8312145;28;20195;-64
2023/08/22 19:55:50;;;;;;;5.97;2.97;;;21.80;99.90;;;;;;8301506;28;20249;-64
2023/08/22 19:59:51;;;;;;;3.53;2.70;;;21.70;99.90;;;;;;8309553;28;20222;-64
2023/08/22 20:03:52;;;;;;;6.23;3.43;;;21.60;99.90;;;;;;8305518;28;20183;-64
2023/08/22 20:07:54;;;;;;;5.73;3.20;;;21.50;99.90;;;;;;8322777;28;20893;-65
2023/08/22 20:11:55;;;;;;;4.70;2.90;;;21.40;99.90;;;;;;8309722;28;20198;-65
2023/08/22 20:15:55;;;;;;;3.23;2.67;;;21.30;99.90;;;;;;8327629;28;20198;-65
2023/08/22 20:19:56;;;;;;;3.50;3.00;;;21.30;99.90;;;;;;8325164;28;20226;-65
2023/08/22 20:23:57;;;;;;;6.77;3.23;;;21.20;99.90;;;;;;8313513;28;20289;-64
2023/08/22 20:27:58;;;;;;;8.30;3.70;;;21.10;99.90;;;;;;8306701;28;20186;-64
2023/08/22 20:31:59;;;;;;;4.93;3.37;;;21.10;99.90;;;;;;8299499;28;20214;-64
2023/08/22 20:36:00;;;;;;;6.70;4.03;;;21.10;99.90;;;;;;8321434;28;20276;-65
2023/08/22 20:40:01;;;;;;;8.10;4.90;;;21.10;99.90;;;;;;8313314;28;20210;-64
2023/08/22 20:44:02;;;;;;;7.93;4.80;;;21.10;99.90;;;;;;8300095;28;20276;-64
2023/08/22 20:48:03;;;;;;;6.07;3.53;;;21.10;99.90;;;;;;8302519;28;20189;-65
2023/08/22 20:52:04;;;;;;;3.87;3.30;;;21.00;99.90;;;;;;8299272;28;20308;-64
2023/08/22 20:56:05;;;;;;;6.27;3.87;;;20.90;99.90;;;;;;8300994;28;20190;-64
2023/08/22 21:00:07;;;;;;;8.57;3.97;;;20.80;99.90;;;;;;8302357;28;20313;-64
2023/08/22 21:04:08;;;;;;;8.27;3.27;;;20.80;99.90;;;;;;8312800;28;20290;-64